createdAt,value
2017-11-11T00:00:17.194Z,100285.06
2017-11-11T00:02:44.831Z,100281.33
2017-11-11T00:05:12.414Z,100284.13
2017-11-11T00:07:40.052Z,100285.06
2017-11-11T00:10:07.628Z,100287.52
2017-11-11T00:12:35.273Z,100288.72
2017-11-11T00:15:02.882Z,100279.42
2017-11-11T00:17:30.473Z,100294.35
2017-11-11T00:19:58.125Z,100294.02
2017-11-11T00:22:26.016Z,100298.74
2017-11-11T00:24:53.657Z,100291.87
2017-11-11T00:27:21.252Z,100295.67
2017-11-11T00:29:48.847Z,100307.05
2017-11-11T00:32:16.471Z,100302.72
2017-11-11T00:34:44.058Z,100295.28
2017-11-11T00:37:11.727Z,100299.10
2017-11-11T00:39:39.313Z,100297.09
2017-11-11T00:42:07.280Z,100299.67
2017-11-11T00:44:34.926Z,100299.75
2017-11-11T00:47:02.551Z,100302.97
2017-11-11T00:49:30.215Z,100299.91
2017-11-11T00:51:57.824Z,100308.94
2017-11-11T00:54:25.458Z,100300.72
2017-11-11T00:56:53.387Z,100304.67
2017-11-11T00:59:20.987Z,100307.23
2017-11-11T01:01:48.623Z,100324.95
2017-11-11T01:04:17.098Z,100309.36
2017-11-11T01:06:44.690Z,100305.33
2017-11-11T01:09:12.314Z,100294.66
2017-11-11T01:11:40.289Z,100302.31
2017-11-11T01:14:07.947Z,100309.28
2017-11-11T01:16:35.544Z,100302.60
2017-11-11T01:19:03.160Z,100307.56
2017-11-11T01:21:30.796Z,100307.64
2017-11-11T01:23:58.381Z,100309.28
2017-11-11T01:26:26.021Z,100306.38
2017-11-11T01:28:53.685Z,100302.39
2017-11-11T01:31:21.282Z,100294.65
2017-11-11T01:33:48.975Z,100297.30
2017-11-11T01:36:16.567Z,100302.88
2017-11-11T01:38:44.199Z,100297.20
2017-11-11T01:41:11.841Z,100295.77
2017-11-11T01:43:39.445Z,100297.14
2017-11-11T01:46:07.111Z,100291.64
2017-11-11T01:48:34.716Z,100284.45
2017-11-11T01:51:02.346Z,100299.44
2017-11-11T01:53:29.916Z,100281.30
2017-11-11T01:55:57.491Z,100299.97
2017-11-11T01:58:25.122Z,100300.88
2017-11-11T02:00:52.789Z,100287.53
2017-11-11T02:03:20.454Z,100283.09
2017-11-11T02:05:48.154Z,100287.48
2017-11-11T02:08:16.026Z,100282.42
2017-11-11T02:10:43.647Z,100285.66
2017-11-11T02:13:11.233Z,100280.19
2017-11-11T02:15:38.894Z,100285.30
2017-11-11T02:18:06.531Z,100276.03
2017-11-11T02:20:34.191Z,100284.76
2017-11-11T02:23:01.823Z,100287.64
2017-11-11T02:25:29.438Z,100282.62
2017-11-11T02:27:57.079Z,100280.28
2017-11-11T02:30:24.674Z,100280.13
2017-11-11T02:32:52.286Z,100276.91
2017-11-11T02:35:19.899Z,100277.32
2017-11-11T02:37:47.507Z,100272.36
2017-11-11T02:40:15.195Z,100262.83
2017-11-11T02:42:42.808Z,100275.24
2017-11-11T02:45:10.973Z,100264.95
2017-11-11T02:47:38.841Z,100260.00
2017-11-11T02:50:06.466Z,100272.02
2017-11-11T02:52:34.160Z,100267.06
2017-11-11T02:55:01.795Z,100268.16
2017-11-11T02:57:29.430Z,100267.41
2017-11-11T02:59:57.049Z,100266.11
2017-11-11T03:02:24.633Z,100264.86
2017-11-11T03:04:52.586Z,100260.63
2017-11-11T03:07:20.198Z,100269.56
2017-11-11T03:09:47.802Z,100271.33
2017-11-11T03:12:15.447Z,100263.53
2017-11-11T03:14:43.660Z,100263.53
2017-11-11T03:17:11.337Z,100268.34
2017-11-11T03:19:38.965Z,100266.52
2017-11-11T03:22:06.846Z,100267.14
2017-11-11T03:24:34.463Z,100263.77
2017-11-11T03:27:02.046Z,100266.84
2017-11-11T03:29:29.683Z,100268.00
2017-11-11T03:31:57.269Z,100258.16
2017-11-11T03:34:24.887Z,100254.91
2017-11-11T03:36:52.817Z,100252.57
2017-11-11T03:39:20.408Z,100251.17
2017-11-11T03:41:48.052Z,100246.47
2017-11-11T03:44:15.642Z,100249.64
2017-11-11T03:46:43.227Z,100248.16
2017-11-11T03:49:11.342Z,100247.80
2017-11-11T03:51:38.930Z,100250.05
2017-11-11T03:54:07.100Z,100233.88
2017-11-11T03:56:34.693Z,100238.61
2017-11-11T03:59:02.291Z,100238.60
2017-11-11T04:01:29.913Z,100235.14
2017-11-11T04:03:57.544Z,100241.79
2017-11-11T04:06:25.166Z,100247.53
2017-11-11T04:08:52.747Z,100243.27
2017-11-11T04:11:20.724Z,100253.30
2017-11-11T04:13:48.353Z,100242.01
2017-11-11T04:16:16.255Z,100250.56
2017-11-11T04:18:43.897Z,100236.98
2017-11-11T04:21:11.475Z,100239.64
2017-11-11T04:23:39.071Z,100237.97
2017-11-11T04:26:06.692Z,100235.23
2017-11-11T04:28:34.297Z,100234.03
2017-11-11T04:31:01.914Z,100227.41
2017-11-11T04:33:29.537Z,100235.55
2017-11-11T04:35:57.118Z,100225.52
2017-11-11T04:38:25.218Z,100237.80
2017-11-11T04:40:52.814Z,100241.09
2017-11-11T04:43:20.745Z,100236.21
2017-11-11T04:45:48.342Z,100227.85
2017-11-11T04:48:15.958Z,100241.52
2017-11-11T04:50:43.563Z,100231.67
2017-11-11T04:53:11.159Z,100231.28
2017-11-11T04:55:38.795Z,100238.20
2017-11-11T04:58:06.377Z,100228.71
2017-11-11T05:00:33.975Z,100226.29
2017-11-11T05:03:01.651Z,100234.01
2017-11-11T05:05:29.241Z,100237.45
2017-11-11T05:07:56.876Z,100242.30
2017-11-11T05:10:24.738Z,100242.55
2017-11-11T05:12:52.327Z,100236.34
2017-11-11T05:15:19.956Z,100238.89
2017-11-11T05:17:47.558Z,100238.98
2017-11-11T05:20:15.191Z,100228.70
2017-11-11T05:22:42.778Z,100237.30
2017-11-11T05:25:10.366Z,100235.80
2017-11-11T05:27:37.994Z,100242.27
2017-11-11T05:30:05.573Z,100232.16
2017-11-11T05:32:33.199Z,100231.83
2017-11-11T05:35:00.780Z,100231.75
2017-11-11T05:37:28.372Z,100227.93
2017-11-11T05:39:56.282Z,100236.97
2017-11-11T05:42:23.869Z,100237.17
2017-11-11T05:44:51.542Z,100235.72
2017-11-11T05:47:19.187Z,100241.02
2017-11-11T05:49:46.778Z,100232.48
2017-11-11T05:52:15.017Z,100237.36
2017-11-11T05:54:42.899Z,100240.66
2017-11-11T05:57:10.550Z,100227.83
2017-11-11T05:59:38.329Z,100220.04
2017-11-11T06:02:06.281Z,100219.39
2017-11-11T06:04:34.353Z,100229.34
2017-11-11T06:07:01.938Z,100221.78
2017-11-11T06:09:29.538Z,100228.48
2017-11-11T06:11:57.146Z,100228.81
2017-11-11T06:14:24.748Z,100228.20
2017-11-11T06:16:52.356Z,100233.70
2017-11-11T06:19:20.003Z,100235.02
2017-11-11T06:21:47.594Z,100229.12
2017-11-11T06:24:15.445Z,100225.75
2017-11-11T06:26:43.070Z,100239.56
2017-11-11T06:29:10.659Z,100230.03
2017-11-11T06:31:38.241Z,100225.62
2017-11-11T06:34:05.860Z,100232.61
2017-11-11T06:36:33.578Z,100233.67
2017-11-11T06:39:01.223Z,100234.02
2017-11-11T06:41:29.330Z,100231.61
2017-11-11T06:43:56.924Z,100237.16
2017-11-11T06:46:24.575Z,100232.48
2017-11-11T06:48:52.197Z,100239.20
2017-11-11T06:51:19.870Z,100229.03
2017-11-11T06:53:48.022Z,100229.00
2017-11-11T06:56:15.618Z,100230.43
2017-11-11T06:58:43.275Z,100222.95
2017-11-11T07:01:10.893Z,100223.63
2017-11-11T07:03:38.512Z,100227.10
2017-11-11T07:06:06.126Z,100225.94
2017-11-11T07:08:33.749Z,100226.69
2017-11-11T07:11:01.408Z,100234.55
2017-11-11T07:13:29.049Z,100229.56
2017-11-11T07:15:56.694Z,100223.47
2017-11-11T07:18:24.282Z,100226.23
2017-11-11T07:20:51.890Z,100229.67
2017-11-11T07:23:19.506Z,100217.05
2017-11-11T07:25:47.182Z,100222.11
2017-11-11T07:28:14.814Z,100222.09
2017-11-11T07:30:42.408Z,100224.02
2017-11-11T07:33:10.009Z,100214.38
2017-11-11T07:35:37.727Z,100220.44
2017-11-11T07:38:05.357Z,100218.84
2017-11-11T07:40:32.988Z,100213.23
2017-11-11T07:43:00.578Z,100209.36
2017-11-11T07:45:28.192Z,100229.51
2017-11-11T07:47:55.868Z,100221.50
2017-11-11T07:50:23.457Z,100219.35
2017-11-11T07:52:51.146Z,100218.34
2017-11-11T07:55:18.983Z,100223.80
2017-11-11T07:57:46.601Z,100231.98
2017-11-11T08:00:14.276Z,100225.19
2017-11-11T08:02:41.898Z,100223.36
2017-11-11T08:05:09.583Z,100227.36
2017-11-11T08:07:37.193Z,100226.78
2017-11-11T08:10:04.810Z,100222.59
2017-11-11T08:12:32.474Z,100214.57
2017-11-11T08:15:00.102Z,100216.55
2017-11-11T08:17:27.736Z,100206.83
2017-11-11T08:19:55.350Z,100208.65
2017-11-11T08:22:22.995Z,100206.52
2017-11-11T08:24:50.621Z,100202.33
2017-11-11T08:27:18.819Z,100189.91
2017-11-11T08:29:48.555Z,100198.34
2017-11-11T08:32:16.395Z,100192.30
2017-11-11T08:34:43.988Z,100186.16
2017-11-11T08:37:11.635Z,100184.27
2017-11-11T08:39:39.234Z,100183.13
2017-11-11T08:42:07.184Z,100185.26
2017-11-11T08:44:34.838Z,100175.41
2017-11-11T08:47:02.452Z,100178.97
2017-11-11T08:49:30.098Z,100172.52
2017-11-11T08:51:57.703Z,100177.70
2017-11-11T08:54:25.663Z,100182.09
2017-11-11T08:56:53.292Z,100177.48
2017-11-11T08:59:20.926Z,100182.70
2017-11-11T09:01:48.861Z,100182.45
2017-11-11T09:04:16.726Z,100169.75
2017-11-11T09:06:44.357Z,100174.99
2017-11-11T09:09:11.959Z,100175.16
2017-11-11T09:11:39.562Z,100178.45
2017-11-11T09:14:07.248Z,100175.14
2017-11-11T09:16:34.842Z,100176.80
2017-11-11T09:19:02.540Z,100178.97
2017-11-11T09:21:30.141Z,100173.40
2017-11-11T09:24:03.332Z,100174.95
2017-11-11T09:26:32.708Z,100170.75
2017-11-11T09:29:00.369Z,100168.58
2017-11-11T09:31:28.021Z,100162.30
2017-11-11T09:33:55.645Z,100164.80
2017-11-11T09:36:23.288Z,100156.64
2017-11-11T09:38:50.941Z,100163.27
2017-11-11T09:41:18.541Z,100166.56
2017-11-11T09:43:46.169Z,100158.78
2017-11-11T09:46:13.763Z,100155.90
2017-11-11T09:48:41.396Z,100149.87
2017-11-11T09:51:09.013Z,100152.60
2017-11-11T09:53:36.625Z,100155.83
2017-11-11T09:56:04.313Z,100147.06
2017-11-11T09:58:31.923Z,100150.53
2017-11-11T10:00:59.553Z,100146.22
2017-11-11T10:03:27.301Z,100144.66
2017-11-11T10:05:54.938Z,100154.60
2017-11-11T10:08:22.584Z,100142.88
2017-11-11T10:10:50.344Z,100142.61
2017-11-11T10:13:18.374Z,100133.29
2017-11-11T10:15:46.002Z,100138.05
2017-11-11T10:18:13.674Z,100136.09
2017-11-11T10:20:42.175Z,100123.13
2017-11-11T10:23:09.780Z,100129.23
2017-11-11T10:25:37.377Z,100121.86
2017-11-11T10:28:04.995Z,100121.07
2017-11-11T10:30:32.594Z,100123.14
2017-11-11T10:33:00.571Z,100122.09
2017-11-11T10:35:28.187Z,100120.53
2017-11-11T10:37:55.912Z,100122.19
2017-11-11T10:40:23.567Z,100127.18
2017-11-11T10:42:51.174Z,100123.72
2017-11-11T10:45:18.893Z,100124.47
2017-11-11T10:47:46.519Z,100111.78
2017-11-11T10:50:14.117Z,100111.59
2017-11-11T10:52:41.746Z,100105.88
2017-11-11T10:55:09.387Z,100104.41
2017-11-11T10:57:37.045Z,100092.17
2017-11-11T11:00:05.012Z,100094.98
2017-11-11T11:02:32.668Z,100084.59
2017-11-11T11:05:00.359Z,100080.30
2017-11-11T11:07:28.393Z,100078.14
2017-11-11T11:09:56.056Z,100076.03
2017-11-11T11:12:23.715Z,100075.24
2017-11-11T11:14:51.335Z,100075.52
2017-11-11T11:17:18.984Z,100065.56
2017-11-11T11:19:46.632Z,100065.08
2017-11-11T11:22:14.275Z,100060.80
2017-11-11T11:24:41.943Z,100057.48
2017-11-11T11:27:09.991Z,100053.84
2017-11-11T11:29:37.664Z,100056.41
2017-11-11T11:32:05.259Z,100059.02
2017-11-11T11:34:33.209Z,100056.84
2017-11-11T11:37:00.821Z,100041.19
2017-11-11T11:39:28.527Z,100042.01
2017-11-11T11:41:56.162Z,100043.00
2017-11-11T11:44:23.749Z,100044.05
2017-11-11T11:46:51.436Z,100035.05
2017-11-11T11:49:19.040Z,100048.44
2017-11-11T11:51:46.634Z,100047.45
2017-11-11T11:54:14.294Z,100038.13
2017-11-11T11:56:42.881Z,100039.83
2017-11-11T11:59:10.613Z,100033.95
2017-11-11T12:01:38.514Z,100034.95
2017-11-11T12:04:06.286Z,100035.98
2017-11-11T12:06:33.913Z,100034.55
2017-11-11T12:09:01.667Z,100031.77
2017-11-11T12:11:30.526Z,100032.23
2017-11-11T12:13:58.274Z,100016.55
2017-11-11T12:16:25.884Z,100013.13
2017-11-11T12:18:53.523Z,100014.08
2017-11-11T12:21:21.135Z,100006.20
2017-11-11T12:23:48.845Z,99998.27
2017-11-11T12:26:16.455Z,99998.25
2017-11-11T12:28:44.128Z,99997.83
2017-11-11T12:31:11.767Z,100000.72
2017-11-11T12:33:39.971Z,100007.72
2017-11-11T12:36:08.046Z,99997.02
2017-11-11T12:38:35.666Z,99992.45
2017-11-11T12:41:03.284Z,99987.95
2017-11-11T12:43:31.445Z,99976.83
2017-11-11T12:46:00.075Z,99976.47
2017-11-11T12:48:27.715Z,99971.22
2017-11-11T12:50:55.921Z,99969.15
2017-11-11T12:53:23.538Z,99970.34
2017-11-11T12:55:51.230Z,99962.05
2017-11-11T12:58:18.834Z,99953.84
2017-11-11T13:00:46.469Z,99962.39
2017-11-11T13:03:14.135Z,99950.77
2017-11-11T13:05:41.764Z,99950.16
2017-11-11T13:08:09.457Z,99947.27
2017-11-11T13:10:37.106Z,99945.35
2017-11-11T13:13:04.754Z,99946.91
2017-11-11T13:15:32.380Z,99950.55
2017-11-11T13:18:00.042Z,99951.70
2017-11-11T13:20:27.743Z,99946.23
2017-11-11T13:22:55.446Z,99951.39
2017-11-11T13:25:23.115Z,99950.77
2017-11-11T13:27:51.135Z,99953.84
2017-11-11T13:30:18.738Z,99942.24
2017-11-11T13:32:46.408Z,99940.90
2017-11-11T13:35:14.007Z,99946.12
2017-11-11T13:37:41.633Z,99939.69
2017-11-11T13:40:09.339Z,99949.95
2017-11-11T13:42:36.926Z,99943.79
2017-11-11T13:45:04.877Z,99950.00
2017-11-11T13:47:32.530Z,99948.23
2017-11-11T13:50:00.121Z,99950.39
2017-11-11T13:52:28.058Z,99948.36
2017-11-11T13:54:55.689Z,99937.30
2017-11-11T13:57:23.283Z,99941.32
2017-11-11T13:59:51.253Z,99933.08
2017-11-11T14:02:18.865Z,99940.45
2017-11-11T14:04:46.537Z,99931.58
2017-11-11T14:07:14.128Z,99936.64
2017-11-11T14:09:41.998Z,99937.31
2017-11-11T14:12:09.623Z,99924.53
2017-11-11T14:14:37.218Z,99930.17
2017-11-11T14:17:04.875Z,99920.68
2017-11-11T14:19:32.459Z,99925.99
2017-11-11T14:22:00.043Z,99919.81
2017-11-11T14:24:27.983Z,99924.08
2017-11-11T14:26:55.565Z,99921.72
2017-11-11T14:29:23.237Z,99914.64
2017-11-11T14:31:50.840Z,99922.59
2017-11-11T14:34:18.735Z,99917.50
2017-11-11T14:36:46.359Z,99906.56
2017-11-11T14:39:13.959Z,99901.87
2017-11-11T14:41:42.334Z,99899.84
2017-11-11T14:44:09.939Z,99900.84
2017-11-11T14:46:37.550Z,99901.17
2017-11-11T14:49:05.197Z,99895.37
2017-11-11T14:51:33.099Z,99887.50
2017-11-11T14:54:01.082Z,99893.50
2017-11-11T14:56:28.678Z,99879.66
2017-11-11T14:58:56.270Z,99880.38
2017-11-11T15:01:24.158Z,99877.84
2017-11-11T15:03:52.021Z,99881.20
2017-11-11T15:06:19.671Z,99876.64
2017-11-11T15:08:47.287Z,99877.97
2017-11-11T15:11:14.884Z,99879.09
2017-11-11T15:13:42.510Z,99882.02
2017-11-11T15:16:10.111Z,99876.11
2017-11-11T15:18:38.005Z,99876.69
2017-11-11T15:21:05.874Z,99868.90
2017-11-11T15:23:33.492Z,99877.19
2017-11-11T15:26:01.449Z,99865.16
2017-11-11T15:28:29.374Z,99859.79
2017-11-11T15:30:57.258Z,99864.59
2017-11-11T15:33:24.995Z,99864.55
2017-11-11T15:35:52.592Z,99865.47
2017-11-11T15:38:20.226Z,99861.06
2017-11-11T15:40:47.810Z,99874.82
2017-11-11T15:43:15.484Z,99869.02
2017-11-11T15:45:43.530Z,99860.98
2017-11-11T15:48:12.724Z,99870.89
2017-11-11T15:50:40.366Z,99862.69
2017-11-11T15:53:07.995Z,99858.75
2017-11-11T15:55:35.650Z,99858.71
2017-11-11T15:58:03.289Z,99862.98
2017-11-11T16:00:30.909Z,99860.04
2017-11-11T16:02:58.766Z,99854.23
2017-11-11T16:05:26.359Z,99855.81
2017-11-11T16:07:53.989Z,99850.47
2017-11-11T16:10:21.894Z,99839.32
2017-11-11T16:12:49.502Z,99835.27
2017-11-11T16:15:17.169Z,99829.17
2017-11-11T16:17:44.781Z,99830.92
2017-11-11T16:20:12.757Z,99838.66
2017-11-11T16:22:40.350Z,99830.59
2017-11-11T16:25:07.952Z,99828.15
2017-11-11T16:27:35.564Z,99827.78
2017-11-11T16:30:03.149Z,99830.67
2017-11-11T16:32:31.079Z,99827.48
2017-11-11T16:34:58.702Z,99820.98
2017-11-11T16:37:26.287Z,99823.14
2017-11-11T16:39:53.895Z,99823.88
2017-11-11T16:42:21.530Z,99834.19
2017-11-11T16:44:49.164Z,99833.11
2017-11-11T16:47:16.779Z,99838.91
2017-11-11T16:49:44.716Z,99835.35
2017-11-11T16:52:12.357Z,99837.09
2017-11-11T16:54:39.942Z,99832.99
2017-11-11T16:57:07.617Z,99831.13
2017-11-11T16:59:35.262Z,99829.05
2017-11-11T17:02:02.846Z,99832.08
2017-11-11T17:04:30.456Z,99840.27
2017-11-11T17:06:58.040Z,99834.69
2017-11-11T17:09:25.681Z,99836.02
2017-11-11T17:11:53.791Z,99837.79
2017-11-11T17:14:21.449Z,99838.20
2017-11-11T17:16:49.079Z,99835.55
2017-11-11T17:19:16.975Z,99835.64
2017-11-11T17:21:44.686Z,99832.91
2017-11-11T17:24:12.313Z,99837.21
2017-11-11T17:26:40.166Z,99833.44
2017-11-11T17:29:07.819Z,99828.92
2017-11-11T17:31:35.410Z,99838.60
2017-11-11T17:34:03.034Z,99838.44
2017-11-11T17:36:30.634Z,99839.71
2017-11-11T17:38:58.266Z,99830.72
2017-11-11T17:41:25.885Z,99824.81
2017-11-11T17:43:53.481Z,99826.16
2017-11-11T17:46:21.106Z,99828.59
2017-11-11T17:48:49.051Z,99834.14
2017-11-11T17:51:16.641Z,99828.95
2017-11-11T17:53:44.261Z,99838.47
2017-11-11T17:56:11.854Z,99839.38
2017-11-11T17:58:39.490Z,99837.39
2017-11-11T18:01:07.373Z,99834.25
2017-11-11T18:03:34.973Z,99827.98
2017-11-11T18:06:02.605Z,99833.50
2017-11-11T18:08:30.207Z,99836.67
2017-11-11T18:10:57.850Z,99839.63
2017-11-11T18:13:25.477Z,99837.72
2017-11-11T18:15:53.101Z,99846.63
2017-11-11T18:18:20.729Z,99846.03
2017-11-11T18:20:48.333Z,99842.27
2017-11-11T18:23:16.022Z,99847.41
2017-11-11T18:25:43.610Z,99837.00
2017-11-11T18:28:11.206Z,99839.10
2017-11-11T18:30:38.817Z,99840.43
2017-11-11T18:33:06.915Z,99842.91
2017-11-11T18:35:34.579Z,99840.48
2017-11-11T18:38:02.274Z,99843.34
2017-11-11T18:40:29.872Z,99850.12
2017-11-11T18:42:57.512Z,99849.39
2017-11-11T18:45:25.109Z,99852.52
2017-11-11T18:47:52.732Z,99856.69
2017-11-11T18:50:20.330Z,99855.92
2017-11-11T18:52:47.914Z,99859.96
2017-11-11T18:55:15.534Z,99863.20
2017-11-11T18:57:43.113Z,99867.84
2017-11-11T19:00:10.785Z,99861.17
2017-11-11T19:02:38.385Z,99873.41
2017-11-11T19:05:05.989Z,99879.57
2017-11-11T19:07:33.754Z,99869.30
2017-11-11T19:10:01.340Z,99869.84
2017-11-11T19:12:28.999Z,99875.47
2017-11-11T19:14:56.590Z,99878.22
2017-11-11T19:17:24.190Z,99885.12
2017-11-11T19:19:51.832Z,99880.80
2017-11-11T19:22:19.433Z,99887.14
2017-11-11T19:24:47.071Z,99880.13
2017-11-11T19:27:14.921Z,99879.97
2017-11-11T19:29:42.627Z,99888.05
2017-11-11T19:32:10.369Z,99887.94
2017-11-11T19:34:37.979Z,99881.30
2017-11-11T19:37:05.640Z,99873.88
2017-11-11T19:39:33.225Z,99883.28
2017-11-11T19:42:00.809Z,99882.20
2017-11-11T19:44:28.439Z,99875.91
2017-11-11T19:46:56.036Z,99873.28
2017-11-11T19:49:23.708Z,99876.45
2017-11-11T19:51:51.340Z,99876.50
2017-11-11T19:54:20.845Z,99879.96
2017-11-11T19:56:48.534Z,99882.34
2017-11-11T19:59:16.186Z,99876.34
2017-11-11T20:01:43.857Z,99882.98
2017-11-11T20:04:11.486Z,99884.14
2017-11-11T20:06:39.087Z,99883.23
2017-11-11T20:09:06.717Z,99882.13
2017-11-11T20:11:34.300Z,99881.75
2017-11-11T20:14:01.930Z,99882.73
2017-11-11T20:16:29.550Z,99887.39
2017-11-11T20:18:57.402Z,99892.34
2017-11-11T20:21:25.015Z,99899.44
2017-11-11T20:23:52.581Z,99904.97
2017-11-11T20:26:20.210Z,99909.45
2017-11-11T20:28:47.791Z,99910.06
2017-11-11T20:31:15.454Z,99902.51
2017-11-11T20:33:43.178Z,99906.15
2017-11-11T20:36:10.801Z,99919.14
2017-11-11T20:38:38.524Z,99913.52
2017-11-11T20:41:06.137Z,99917.81
2017-11-11T20:43:34.029Z,99926.66
2017-11-11T20:46:01.753Z,99920.95
2017-11-11T20:48:29.404Z,99921.62
2017-11-11T20:50:57.003Z,99924.02
2017-11-11T20:53:24.639Z,99922.22
2017-11-11T20:55:52.301Z,99921.12
2017-11-11T20:58:20.009Z,99923.94
2017-11-11T21:00:47.669Z,99925.24
2017-11-11T21:03:15.350Z,99925.58
2017-11-11T21:05:43.756Z,99930.53
2017-11-11T21:08:11.450Z,99937.58
2017-11-11T21:10:39.084Z,99946.02
2017-11-11T21:13:07.116Z,99946.03
2017-11-11T21:15:34.726Z,99941.97
2017-11-11T21:18:02.376Z,99946.38
2017-11-11T21:20:30.020Z,99940.17
2017-11-11T21:22:57.609Z,99942.88
2017-11-11T21:25:25.244Z,99940.80
2017-11-11T21:27:52.970Z,99948.16
2017-11-11T21:30:20.578Z,99945.02
2017-11-11T21:32:48.526Z,99947.59
2017-11-11T21:35:16.126Z,99947.41
2017-11-11T21:37:43.753Z,99945.27
2017-11-11T21:40:11.351Z,99945.78
2017-11-11T21:42:39.282Z,99951.30
2017-11-11T21:45:06.890Z,99957.69
2017-11-11T21:47:34.500Z,99948.16
2017-11-11T21:50:02.204Z,99953.05
2017-11-11T21:52:29.807Z,99954.03
2017-11-11T21:54:57.405Z,99948.50
2017-11-11T21:57:25.081Z,99952.03
2017-11-11T21:59:52.725Z,99956.92
2017-11-11T22:02:20.365Z,99971.06
2017-11-11T22:04:48.309Z,99970.31
2017-11-11T22:07:15.895Z,99978.66
2017-11-11T22:09:43.785Z,99975.55
2017-11-11T22:12:11.388Z,99979.45
2017-11-11T22:14:39.020Z,99977.72
2017-11-11T22:17:06.663Z,99972.39
2017-11-11T22:19:34.642Z,99969.02
2017-11-11T22:22:02.259Z,99976.64
2017-11-11T22:24:29.978Z,99973.06
2017-11-11T22:26:57.689Z,99984.73
2017-11-11T22:29:25.347Z,99978.95
2017-11-11T22:31:52.956Z,99974.82
2017-11-11T22:34:20.731Z,99981.44
2017-11-11T22:36:48.350Z,99983.16
2017-11-11T22:39:15.993Z,99986.87
2017-11-11T22:41:43.578Z,99985.32
2017-11-11T22:44:11.176Z,99985.16
2017-11-11T22:46:38.805Z,99982.42
2017-11-11T22:49:06.410Z,99983.56
2017-11-11T22:51:34.026Z,99977.11
2017-11-11T22:54:01.634Z,99976.28
2017-11-11T22:56:29.679Z,99982.76
2017-11-11T22:58:57.299Z,99978.11
2017-11-11T23:01:24.902Z,99984.06
2017-11-11T23:03:52.537Z,99982.66
2017-11-11T23:06:20.441Z,99988.69
2017-11-11T23:08:48.022Z,99988.34
2017-11-11T23:11:15.663Z,99993.06
2017-11-11T23:13:43.255Z,99990.25
2017-11-11T23:16:10.888Z,99994.73
2017-11-11T23:18:38.501Z,100000.84
2017-11-11T23:21:06.122Z,100000.58
2017-11-11T23:23:34.087Z,100010.52
2017-11-11T23:26:01.954Z,100007.79
2017-11-11T23:28:29.599Z,100010.93
2017-11-11T23:30:57.239Z,100008.89
2017-11-11T23:33:24.850Z,100007.47
2017-11-11T23:35:52.469Z,100006.37
2017-11-11T23:38:20.108Z,100008.59
2017-11-11T23:40:48.030Z,100002.25
2017-11-11T23:43:15.650Z,100005.31
2017-11-11T23:45:43.577Z,100004.08
2017-11-11T23:48:11.177Z,100005.73
2017-11-11T23:50:38.826Z,100012.94
2017-11-11T23:53:06.495Z,100016.16
2017-11-11T23:55:34.420Z,100017.66
2017-11-11T23:58:02.056Z,100015.67
